• Join FlightAware (Why Join?)
  • Login
  • US Flag 
01:52PM EST


 

Airport Tracker/Info


-or-


 

Live Flight TrackerFlight Track Log ✈ N449ND ✈ 05-Mar-2014 ✈ KFPR - KTIX

Flight Track Log - Related Links

Times and Time Zones

All times are in EST time to prevent confusion due to time zone crossing. See the N449ND flight status page for this flight to view local times or setup timezone preferences in your user account.

Time Position Orientation Groundspeed Altitude Reporting Facility
EST Latitude Longitude Course Direction KTS MPH feet Rate Location/Type
06:36PM 27.5019 -80.2844 299° West 61 70 3,000  Level Miami Center
06:37PM 27.6044 -80.4012 347° North  Level FlightAware Approximate
06:37PM 27.5289 -80.2947 341° North 79 91 3,100  Level Miami Center
06:38PM 27.6072 -80.4036 336° Northwest  Level FlightAware Approximate
06:38PM 27.5581 -80.3050 343° North 101 116 3,100  Level Miami Center
06:39PM 27.6239 -80.4119 336° Northwest  Level FlightAware Approximate
06:39PM 27.5828 -80.3128 344° North 106 122 3,100  Level Miami Center
06:40PM 27.6373 -80.4245 299° West  Level FlightAware Approximate
06:40PM 27.6158 -80.3278 338° Northwest 106 122 3,000  Level Miami Center
06:41PM 27.6463 -80.4425 299° West  Level FlightAware Approximate
06:41PM 27.6447 -80.3381 343° North 106 122 3,100  Level Miami Center
06:42PM 27.6739 -80.3483 343° North 106 122 3,100  Level Miami Center
06:43PM 27.7008 -80.3492 358° North 106 122 3,100 -60 Level Miami Center
06:44PM 27.7342 -80.3500 359° North 106 122 3,000 -60 Descending Miami Center
06:45PM 27.7697 -80.3536 355° North 106 122 3,000  Level Miami Center
06:47PM 27.8167 -80.3500 North 109 125 3,000  Level Orlando TRACON
06:48PM 27.8500 -80.3500 360° North 110 127 3,000  Level Orlando TRACON
06:49PM 27.8833 -80.3667 336° Northwest 112 129 3,000  Level Orlando TRACON
06:50PM 27.9167 -80.4000 319° Northwest 108 124 3,100  Climbing Orlando TRACON
06:51PM 27.9333 -80.4167 319° Northwest 113 130 3,000 -60 Descending Orlando TRACON
06:52PM 27.9500 -80.4500 300° West 113 130 3,000  Level Orlando TRACON
06:53PM 27.9833 -80.4667 336° Northwest 109 125 3,000  Level Orlando TRACON
06:54PM 28.0000 -80.5000 300° West 113 130 3,000  Level Orlando TRACON
06:55PM 28.0167 -80.5167 319° Northwest 108 124 3,000  Level Orlando TRACON
06:56PM 28.0500 -80.5333 336° Northwest 111 128 3,000  Level Orlando TRACON
06:57PM 28.0667 -80.5500 319° Northwest 114 131 3,000  Level Orlando TRACON
06:58PM 28.1000 -80.5667 336° Northwest 114 131 3,000  Level Orlando TRACON
06:59PM 28.1167 -80.6000 300° West 113 130 3,000  Level Orlando TRACON
07:00PM 28.1500 -80.6167 336° Northwest 111 128 3,000  Level Orlando TRACON
07:01PM 28.1667 -80.6500 300° West 110 127 3,000  Level Orlando TRACON
07:02PM 28.2000 -80.6667 336° Northwest 110 127 3,100  Climbing Orlando TRACON
07:03PM 28.2333 -80.6833 336° Northwest 113 130 3,000 -60 Descending Orlando TRACON
07:04PM 28.2500 -80.7000 319° Northwest 115 132 3,000 -420 Level Orlando TRACON
07:05PM 28.2667 -80.7333 300° West 110 127 2,300 -420 Descending Orlando TRACON
07:06PM 28.2833 -80.7500 319° Northwest 96 110 2,100 -60 Descending Orlando TRACON
07:07PM 28.3167 -80.7833 319° Northwest 100 115 2,200  Climbing Orlando TRACON
07:08PM 28.3333 -80.8000 319° Northwest 103 119 2,200  Level Orlando TRACON
07:09PM 28.3667 -80.8000 360° North 96 110 2,200  Level Orlando TRACON
07:10PM 28.3833 -80.8000 360° North 93 107 2,200 -180 Level Orlando TRACON
07:11PM 28.4167 -80.8000 360° North 87 100 1,900 -300 Descending Orlando TRACON
07:12PM 28.4333 -80.8000 360° North 64 74 1,600 -360 Descending Orlando TRACON
07:13PM 28.4500 -80.8000 360° North 71 82 1,200 -420 Descending Orlando TRACON
07:14PM 28.4667 -80.8000 360° North 72 83 800 -420 Descending Orlando TRACON
07:15PM 28.4833 -80.8000 360° North 70 81 400 -420 Descending Orlando TRACON
07:17PM 28.5000 -80.7833 348° North  Level FlightAware Approximate
07:24PM 28.5148 -80.7992 348° North  Level Estimated
07:25PM 28.5148 -80.7992 348° North  Level Estimated
07:26PM 28.5148 -80.7992 348° North  Level Estimated
07:27PM 28.5148 -80.7992 348° North  Level Estimated